createdAt,value
2018-03-02T00:02:18.800Z,88.89
2018-03-02T00:06:26.439Z,89.05
2018-03-02T00:10:33.774Z,88.89
2018-03-02T00:14:38.656Z,88.86
2018-03-02T00:18:43.092Z,88.88
2018-03-02T00:22:49.305Z,88.47
2018-03-02T00:26:54.421Z,88.57
2018-03-02T00:30:58.873Z,88.14
2018-03-02T00:35:05.636Z,86.96
2018-03-02T00:39:10.642Z,86.65
2018-03-02T00:43:16.032Z,86.75
2018-03-02T00:47:22.848Z,85.90
2018-03-02T00:51:28.309Z,85.65
2018-03-02T00:55:36.151Z,85.30
2018-03-02T00:59:43.443Z,84.41
2018-03-02T01:03:48.058Z,83.15
2018-03-02T01:07:53.182Z,82.03
2018-03-02T01:16:14.550Z,80.61
2018-03-02T01:20:26.212Z,79.88
2018-03-02T01:24:32.787Z,79.38
2018-03-02T01:28:41.673Z,79.11
2018-03-02T01:32:46.822Z,78.99
2018-03-02T01:36:52.198Z,78.98
2018-03-02T01:40:58.580Z,78.79
2018-03-02T01:45:05.042Z,78.51
2018-03-02T01:49:10.600Z,78.43
2018-03-02T01:53:16.414Z,78.33
2018-03-02T01:57:22.600Z,78.17
2018-03-02T02:01:28.572Z,78.04
2018-03-02T02:05:33.079Z,77.98
2018-03-02T02:09:36.932Z,78.51
2018-03-02T02:13:41.924Z,79.44
2018-03-02T02:21:58.379Z,79.41
2018-03-02T02:26:03.240Z,78.96
2018-03-02T02:30:11.000Z,79.00
2018-03-02T02:34:15.440Z,78.77
2018-03-02T02:38:21.688Z,78.56
2018-03-02T02:42:26.919Z,78.56
2018-03-02T02:46:34.154Z,78.15
2018-03-02T02:50:39.914Z,77.89
2018-03-02T02:54:46.343Z,77.26
2018-03-02T02:58:51.846Z,77.53
2018-03-02T03:02:58.419Z,77.28
2018-03-02T03:07:07.323Z,77.29
2018-03-02T03:11:11.533Z,77.73
2018-03-02T03:15:17.740Z,78.02
2018-03-02T03:19:23.277Z,77.80
2018-03-02T03:23:27.786Z,78.22
2018-03-02T03:27:33.931Z,78.57
2018-03-02T03:31:39.580Z,78.51
2018-03-02T03:35:44.467Z,78.12
2018-03-02T03:39:51.498Z,78.01
2018-03-02T03:43:59.572Z,78.48
2018-03-02T04:06:28.458Z,79.57
2018-03-02T04:15:19.769Z,80.16
2018-03-02T04:19:31.768Z,79.93
2018-03-02T04:23:44.056Z,80.13
2018-03-02T04:42:05.677Z,80.33
2018-03-02T04:46:35.238Z,80.11
2018-03-02T04:50:38.852Z,80.12
2018-03-02T04:54:42.208Z,79.94
2018-03-02T04:58:45.702Z,79.64
2018-03-02T05:02:49.043Z,79.02
2018-03-02T05:06:52.435Z,78.74
2018-03-02T05:10:55.842Z,79.02
2018-03-02T05:14:59.268Z,78.70
2018-03-02T05:19:03.496Z,78.78
2018-03-02T05:23:07.666Z,78.15
2018-03-02T05:27:11.047Z,78.26
2018-03-02T05:31:14.398Z,78.11
2018-03-02T05:35:17.859Z,78.29
2018-03-02T05:39:21.296Z,78.23
2018-03-02T05:43:24.716Z,78.27
2018-03-02T05:47:28.239Z,78.72
2018-03-02T05:51:32.464Z,78.61
2018-03-02T06:00:41.380Z,79.57
2018-03-02T06:04:44.736Z,79.72
2018-03-02T06:08:48.859Z,80.08
2018-03-02T06:12:52.984Z,80.58
2018-03-02T06:16:57.087Z,80.38
2018-03-02T06:21:00.455Z,80.58
2018-03-02T06:25:03.914Z,80.47
2018-03-02T06:29:08.065Z,80.43
